sensor_id;sensor_type;location;lat;lon;timestamp;pressure;altitude;pressure_sealevel;temperature;humidity
39729;BME280;25402;42.004;23.088;2022-07-24T00:02:11;97474.53;;;19.05;32.78
39729;BME280;25402;42.004;23.088;2022-07-24T00:04:37;97487.91;;;19.13;32.85
39729;BME280;25402;42.004;23.088;2022-07-24T00:07:04;97484.59;;;19.11;32.68
39729;BME280;25402;42.004;23.088;2022-07-24T00:09:31;97487.19;;;19.06;32.76
39729;BME280;25402;42.004;23.088;2022-07-24T00:11:58;97500.78;;;19.01;32.81
39729;BME280;25402;42.004;23.088;2022-07-24T00:14:24;97490.66;;;18.90;32.95
39729;BME280;25402;42.004;23.088;2022-07-24T00:16:51;97496.66;;;18.87;32.96
39729;BME280;25402;42.004;23.088;2022-07-24T00:19:17;97482.47;;;18.78;33.13
39729;BME280;25402;42.004;23.088;2022-07-24T00:21:44;97488.78;;;18.79;32.99
39729;BME280;25402;42.004;23.088;2022-07-24T00:24:10;97464.41;;;18.54;33.36
39729;BME280;25402;42.004;23.088;2022-07-24T00:26:37;97487.38;;;18.64;33.35
39729;BME280;25402;42.004;23.088;2022-07-24T00:29:04;97482.28;;;18.56;33.46
39729;BME280;25402;42.004;23.088;2022-07-24T00:31:31;97491.41;;;18.62;33.39
39729;BME280;25402;42.004;23.088;2022-07-24T00:33:57;97481.06;;;18.52;33.42
39729;BME280;25402;42.004;23.088;2022-07-24T00:36:24;97495.47;;;18.59;33.35
39729;BME280;25402;42.004;23.088;2022-07-24T00:38:50;97501.19;;;18.58;33.40
39729;BME280;25402;42.004;23.088;2022-07-24T00:41:16;97503.34;;;18.56;33.42
39729;BME280;25402;42.004;23.088;2022-07-24T00:44:03;97495.84;;;18.51;33.57
39729;BME280;25402;42.004;23.088;2022-07-24T00:46:30;97500.59;;;18.44;33.39
39729;BME280;25402;42.004;23.088;2022-07-24T00:48:57;97506.28;;;18.42;33.34
39729;BME280;25402;42.004;23.088;2022-07-24T00:51:23;97500.69;;;18.37;33.23
39729;BME280;25402;42.004;23.088;2022-07-24T00:53:50;97486.50;;;18.29;33.36
39729;BME280;25402;42.004;23.088;2022-07-24T00:56:17;97504.59;;;18.30;33.41
39729;BME280;25402;42.004;23.088;2022-07-24T00:58:45;97477.44;;;18.17;33.52
39729;BME280;25402;42.004;23.088;2022-07-24T01:01:13;97497.94;;;18.26;33.53
39729;BME280;25402;42.004;23.088;2022-07-24T01:03:40;97502.81;;;18.24;33.61
39729;BME280;25402;42.004;23.088;2022-07-24T01:06:06;97506.63;;;18.23;33.56
39729;BME280;25402;42.004;23.088;2022-07-24T01:08:33;97499.72;;;18.20;33.70
39729;BME280;25402;42.004;23.088;2022-07-24T01:11:00;97492.44;;;18.14;33.79
39729;BME280;25402;42.004;23.088;2022-07-24T01:13:27;97497.31;;;18.12;34.08
39729;BME280;25402;42.004;23.088;2022-07-24T01:15:55;97486.94;;;18.02;34.09
39729;BME280;25402;42.004;23.088;2022-07-24T01:18:22;97497.66;;;18.04;33.80
39729;BME280;25402;42.004;23.088;2022-07-24T01:20:49;97467.41;;;17.87;33.92
39729;BME280;25402;42.004;23.088;2022-07-24T01:23:16;97484.69;;;17.99;34.29
39729;BME280;25402;42.004;23.088;2022-07-24T01:25:43;97480.88;;;17.89;34.53
39729;BME280;25402;42.004;23.088;2022-07-24T01:28:09;97462.13;;;17.74;34.27
39729;BME280;25402;42.004;23.088;2022-07-24T01:30:36;97487.63;;;17.86;34.40
39729;BME280;25402;42.004;23.088;2022-07-24T01:33:02;97479.84;;;17.71;34.65
39729;BME280;25402;42.004;23.088;2022-07-24T01:35:29;97480.53;;;17.67;34.58
39729;BME280;25402;42.004;23.088;2022-07-24T01:37:56;97486.72;;;17.62;34.89
39729;BME280;25402;42.004;23.088;2022-07-24T01:40:23;97485.03;;;17.61;34.96
39729;BME280;25402;42.004;23.088;2022-07-24T01:42:49;97484.22;;;17.61;35.43
39729;BME280;25402;42.004;23.088;2022-07-24T01:45:16;97476.31;;;17.53;35.19
39729;BME280;25402;42.004;23.088;2022-07-24T01:47:43;97490.59;;;17.55;35.20
39729;BME280;25402;42.004;23.088;2022-07-24T01:50:10;97482.63;;;17.53;35.50
39729;BME280;25402;42.004;23.088;2022-07-24T01:52:36;97474.66;;;17.52;35.19
39729;BME280;25402;42.004;23.088;2022-07-24T01:55:04;97468.56;;;17.50;35.24
39729;BME280;25402;42.004;23.088;2022-07-24T01:57:31;97460.72;;;17.42;35.16
39729;BME280;25402;42.004;23.088;2022-07-24T01:59:58;97462.47;;;17.36;35.26
39729;BME280;25402;42.004;23.088;2022-07-24T02:02:24;97464.81;;;17.32;35.15
39729;BME280;25402;42.004;23.088;2022-07-24T02:04:51;97457.31;;;17.28;35.21
39729;BME280;25402;42.004;23.088;2022-07-24T02:07:18;97475.28;;;17.35;35.19
39729;BME280;25402;42.004;23.088;2022-07-24T02:09:44;97470.28;;;17.32;35.16
39729;BME280;25402;42.004;23.088;2022-07-24T02:12:12;97461.59;;;17.24;35.18
39729;BME280;25402;42.004;23.088;2022-07-24T02:14:38;97476.38;;;17.16;35.70
39729;BME280;25402;42.004;23.088;2022-07-24T02:17:05;97483.53;;;17.17;35.62
39729;BME280;25402;42.004;23.088;2022-07-24T02:19:31;97489.22;;;17.16;35.62
39729;BME280;25402;42.004;23.088;2022-07-24T02:21:58;97478.13;;;17.11;35.76
39729;BME280;25402;42.004;23.088;2022-07-24T02:24:24;97493.91;;;17.09;35.41
39729;BME280;25402;42.004;23.088;2022-07-24T02:26:51;97475.25;;;17.06;35.80
39729;BME280;25402;42.004;23.088;2022-07-24T02:29:18;97484.94;;;17.01;35.39
39729;BME280;25402;42.004;23.088;2022-07-24T02:31:44;97484.00;;;16.96;35.91
39729;BME280;25402;42.004;23.088;2022-07-24T02:34:11;97481.72;;;16.93;36.12
39729;BME280;25402;42.004;23.088;2022-07-24T02:36:37;97499.84;;;16.87;36.31
39729;BME280;25402;42.004;23.088;2022-07-24T02:39:04;97488.16;;;16.80;36.72
39729;BME280;25402;42.004;23.088;2022-07-24T02:41:30;97485.50;;;16.74;36.40
39729;BME280;25402;42.004;23.088;2022-07-24T02:43:57;97484.97;;;16.65;36.89
39729;BME280;25402;42.004;23.088;2022-07-24T02:46:24;97493.16;;;16.65;37.13
39729;BME280;25402;42.004;23.088;2022-07-24T02:48:50;97493.38;;;16.63;36.85
39729;BME280;25402;42.004;23.088;2022-07-24T02:51:18;97493.38;;;16.63;36.78
39729;BME280;25402;42.004;23.088;2022-07-24T02:53:44;97488.38;;;16.60;37.07
39729;BME280;25402;42.004;23.088;2022-07-24T02:56:11;97461.84;;;16.43;36.80
39729;BME280;25402;42.004;23.088;2022-07-24T02:58:37;97487.22;;;16.50;36.79
39729;BME280;25402;42.004;23.088;2022-07-24T03:01:04;97486.75;;;16.53;36.65
39729;BME280;25402;42.004;23.088;2022-07-24T03:03:31;97478.44;;;16.41;37.13
39729;BME280;25402;42.004;23.088;2022-07-24T03:05:58;97484.34;;;16.45;36.96
39729;BME280;25402;42.004;23.088;2022-07-24T03:08:24;97480.34;;;16.41;36.89
39729;BME280;25402;42.004;23.088;2022-07-24T03:10:51;97482.22;;;16.40;37.31
39729;BME280;25402;42.004;23.088;2022-07-24T03:13:17;97489.38;;;16.41;36.94
39729;BME280;25402;42.004;23.088;2022-07-24T03:15:44;97495.03;;;16.46;36.92
39729;BME280;25402;42.004;23.088;2022-07-24T03:18:10;97485.66;;;16.36;37.05
39729;BME280;25402;42.004;23.088;2022-07-24T03:20:37;97496.09;;;16.45;37.22
39729;BME280;25402;42.004;23.088;2022-07-24T03:23:04;97471.63;;;16.32;37.75
39729;BME280;25402;42.004;23.088;2022-07-24T03:25:30;97492.31;;;16.46;37.33
39729;BME280;25402;42.004;23.088;2022-07-24T03:27:57;97492.72;;;16.43;37.34
39729;BME280;25402;42.004;23.088;2022-07-24T03:30:24;97494.81;;;16.48;37.34
39729;BME280;25402;42.004;23.088;2022-07-24T03:32:50;97495.44;;;16.43;37.47
39729;BME280;25402;42.004;23.088;2022-07-24T03:35:17;97498.38;;;16.48;37.38
39729;BME280;25402;42.004;23.088;2022-07-24T03:37:44;97508.59;;;16.53;37.61
39729;BME280;25402;42.004;23.088;2022-07-24T03:40:12;97507.31;;;16.55;37.52
39729;BME280;25402;42.004;23.088;2022-07-24T03:42:38;97508.53;;;16.59;37.61
39729;BME280;25402;42.004;23.088;2022-07-24T03:45:06;97508.72;;;16.64;37.13
39729;BME280;25402;42.004;23.088;2022-07-24T03:47:32;97509.47;;;16.72;37.31
39729;BME280;25402;42.004;23.088;2022-07-24T03:49:59;97511.22;;;16.84;37.44
39729;BME280;25402;42.004;23.088;2022-07-24T03:52:25;97514.13;;;17.26;37.14
39729;BME280;25402;42.004;23.088;2022-07-24T03:54:52;97515.63;;;17.70;36.45
39729;BME280;25402;42.004;23.088;2022-07-24T03:57:20;97518.03;;;18.08;35.60
39729;BME280;25402;42.004;23.088;2022-07-24T03:59:47;97509.78;;;18.50;34.79
39729;BME280;25402;42.004;23.088;2022-07-24T04:02:13;97516.91;;;18.86;34.19
39729;BME280;25402;42.004;23.088;2022-07-24T04:04:40;97515.53;;;19.23;33.24
39729;BME280;25402;42.004;23.088;2022-07-24T04:07:06;97525.47;;;19.53;33.01
39729;BME280;25402;42.004;23.088;2022-07-24T04:09:33;97522.59;;;19.88;32.39
39729;BME280;25402;42.004;23.088;2022-07-24T04:12:00;97523.47;;;20.22;32.11
39729;BME280;25402;42.004;23.088;2022-07-24T04:14:26;97525.03;;;20.46;31.89
39729;BME280;25402;42.004;23.088;2022-07-24T04:16:53;97527.97;;;20.78;31.11
39729;BME280;25402;42.004;23.088;2022-07-24T04:19:20;97534.78;;;21.09;31.04
39729;BME280;25402;42.004;23.088;2022-07-24T04:21:46;97531.84;;;21.37;30.32
39729;BME280;25402;42.004;23.088;2022-07-24T04:24:12;97529.34;;;21.79;29.80
39729;BME280;25402;42.004;23.088;2022-07-24T04:26:39;97526.97;;;22.15;29.06
39729;BME280;25402;42.004;23.088;2022-07-24T04:29:06;97527.56;;;22.49;28.82
39729;BME280;25402;42.004;23.088;2022-07-24T04:31:33;97533.28;;;22.74;28.49
39729;BME280;25402;42.004;23.088;2022-07-24T04:33:59;97533.78;;;23.08;28.02
39729;BME280;25402;42.004;23.088;2022-07-24T04:36:26;97525.09;;;23.37;27.49
39729;BME280;25402;42.004;23.088;2022-07-24T04:38:53;97539.81;;;23.63;27.19
39729;BME280;25402;42.004;23.088;2022-07-24T04:41:20;97534.44;;;23.98;26.78
39729;BME280;25402;42.004;23.088;2022-07-24T04:43:46;97535.88;;;24.26;26.04
39729;BME280;25402;42.004;23.088;2022-07-24T04:46:13;97524.84;;;24.51;25.19
39729;BME280;25402;42.004;23.088;2022-07-24T04:48:40;97540.34;;;24.83;24.93
39729;BME280;25402;42.004;23.088;2022-07-24T04:51:06;97540.81;;;25.15;24.25
39729;BME280;25402;42.004;23.088;2022-07-24T04:53:33;97541.88;;;25.40;24.27
39729;BME280;25402;42.004;23.088;2022-07-24T04:55:59;97530.47;;;25.51;24.05
39729;BME280;25402;42.004;23.088;2022-07-24T04:58:26;97545.84;;;25.88;23.45
39729;BME280;25402;42.004;23.088;2022-07-24T05:00:53;97535.66;;;26.17;23.21
39729;BME280;25402;42.004;23.088;2022-07-24T05:03:20;97530.88;;;26.33;22.88
39729;BME280;25402;42.004;23.088;2022-07-24T05:05:46;97533.00;;;26.80;22.15
39729;BME280;25402;42.004;23.088;2022-07-24T05:08:13;97538.09;;;27.26;21.85
39729;BME280;25402;42.004;23.088;2022-07-24T05:10:40;97535.41;;;27.63;21.14
39729;BME280;25402;42.004;23.088;2022-07-24T05:13:06;97534.06;;;28.03;20.95
39729;BME280;25402;42.004;23.088;2022-07-24T05:15:32;97533.53;;;28.39;21.12
39729;BME280;25402;42.004;23.088;2022-07-24T05:17:59;97530.34;;;28.64;20.42
39729;BME280;25402;42.004;23.088;2022-07-24T05:20:26;97539.72;;;28.87;19.81
39729;BME280;25402;42.004;23.088;2022-07-24T05:22:53;97525.88;;;28.82;19.90
39729;BME280;25402;42.004;23.088;2022-07-24T05:25:19;97534.59;;;29.08;19.87
39729;BME280;25402;42.004;23.088;2022-07-24T05:27:46;97529.25;;;29.12;20.22
39729;BME280;25402;42.004;23.088;2022-07-24T05:30:12;97532.16;;;29.20;19.54
39729;BME280;25402;42.004;23.088;2022-07-24T05:32:39;97533.19;;;29.38;19.80
39729;BME280;25402;42.004;23.088;2022-07-24T05:35:06;97514.63;;;29.20;19.69
39729;BME280;25402;42.004;23.088;2022-07-24T05:37:33;97516.72;;;29.28;19.71
39729;BME280;25402;42.004;23.088;2022-07-24T05:39:59;97530.72;;;29.36;19.81
39729;BME280;25402;42.004;23.088;2022-07-24T05:42:26;97534.03;;;29.38;19.44
39729;BME280;25402;42.004;23.088;2022-07-24T05:44:52;97532.69;;;29.63;19.44
39729;BME280;25402;42.004;23.088;2022-07-24T05:47:19;97532.06;;;29.80;18.91
39729;BME280;25402;42.004;23.088;2022-07-24T05:49:45;97530.06;;;29.94;18.56
39729;BME280;25402;42.004;23.088;2022-07-24T05:52:12;97531.53;;;30.05;18.62
39729;BME280;25402;42.004;23.088;2022-07-24T05:54:39;97521.38;;;29.96;18.40
39729;BME280;25402;42.004;23.088;2022-07-24T05:57:05;97517.66;;;30.14;18.79
39729;BME280;25402;42.004;23.088;2022-07-24T05:59:32;97523.69;;;30.30;18.70
39729;BME280;25402;42.004;23.088;2022-07-24T06:01:58;97509.47;;;30.40;18.29
39729;BME280;25402;42.004;23.088;2022-07-24T06:04:25;97522.91;;;30.52;18.27
39729;BME280;25402;42.004;23.088;2022-07-24T06:06:52;97519.53;;;30.63;18.33
39729;BME280;25402;42.004;23.088;2022-07-24T06:09:18;97510.78;;;30.78;17.83
39729;BME280;25402;42.004;23.088;2022-07-24T06:11:45;97505.31;;;30.96;17.77
39729;BME280;25402;42.004;23.088;2022-07-24T06:14:12;97503.69;;;31.03;17.71
39729;BME280;25402;42.004;23.088;2022-07-24T06:16:38;97501.38;;;30.97;17.91
39729;BME280;25402;42.004;23.088;2022-07-24T06:19:04;97494.56;;;30.89;17.66
39729;BME280;25402;42.004;23.088;2022-07-24T06:21:31;97495.69;;;30.88;17.73
39729;BME280;25402;42.004;23.088;2022-07-24T06:23:57;97499.25;;;31.02;17.38
39729;BME280;25402;42.004;23.088;2022-07-24T06:26:24;97496.38;;;31.16;17.27
39729;BME280;25402;42.004;23.088;2022-07-24T06:28:51;97476.63;;;31.12;17.19
39729;BME280;25402;42.004;23.088;2022-07-24T06:31:17;97490.09;;;31.41;17.08
39729;BME280;25402;42.004;23.088;2022-07-24T06:33:44;97486.47;;;31.50;16.96
39729;BME280;25402;42.004;23.088;2022-07-24T06:36:10;97488.94;;;31.51;17.13
39729;BME280;25402;42.004;23.088;2022-07-24T06:38:38;97479.59;;;31.56;16.70
39729;BME280;25402;42.004;23.088;2022-07-24T06:41:05;97495.66;;;31.90;16.81
39729;BME280;25402;42.004;23.088;2022-07-24T06:43:31;97484.16;;;32.08;16.53
39729;BME280;25402;42.004;23.088;2022-07-24T06:45:59;97477.75;;;32.25;16.26
39729;BME280;25402;42.004;23.088;2022-07-24T06:48:25;97465.03;;;32.19;16.01
39729;BME280;25402;42.004;23.088;2022-07-24T06:50:51;97451.56;;;32.04;16.71
39729;BME280;25402;42.004;23.088;2022-07-24T06:53:18;97469.34;;;32.08;16.29
39729;BME280;25402;42.004;23.088;2022-07-24T06:55:44;97458.13;;;32.08;16.64
39729;BME280;25402;42.004;23.088;2022-07-24T06:58:12;97465.25;;;32.23;16.11
39729;BME280;25402;42.004;23.088;2022-07-24T07:00:38;97462.91;;;32.33;16.03
39729;BME280;25402;42.004;23.088;2022-07-24T07:03:05;97463.09;;;32.37;15.98
39729;BME280;25402;42.004;23.088;2022-07-24T07:05:32;97467.69;;;32.41;16.16
39729;BME280;25402;42.004;23.088;2022-07-24T07:07:58;97463.88;;;32.46;16.15
39729;BME280;25402;42.004;23.088;2022-07-24T07:10:25;97448.91;;;32.50;16.07
39729;BME280;25402;42.004;23.088;2022-07-24T07:12:51;97451.00;;;32.62;16.09
39729;BME280;25402;42.004;23.088;2022-07-24T07:15:18;97449.22;;;32.66;16.04
39729;BME280;25402;42.004;23.088;2022-07-24T07:17:45;97451.34;;;32.69;15.60
39729;BME280;25402;42.004;23.088;2022-07-24T07:20:12;97446.38;;;32.75;15.95
39729;BME280;25402;42.004;23.088;2022-07-24T07:22:39;97432.09;;;32.50;15.94
39729;BME280;25402;42.004;23.088;2022-07-24T07:25:07;97436.06;;;32.49;15.54
39729;BME280;25402;42.004;23.088;2022-07-24T07:27:35;97441.31;;;32.68;15.05
39729;BME280;25402;42.004;23.088;2022-07-24T07:30:03;97426.81;;;32.58;15.56
39729;BME280;25402;42.004;23.088;2022-07-24T07:32:29;97438.66;;;32.72;15.41
39729;BME280;25402;42.004;23.088;2022-07-24T07:34:56;97431.72;;;32.78;15.35
39729;BME280;25402;42.004;23.088;2022-07-24T07:37:23;97432.38;;;32.83;15.47
39729;BME280;25402;42.004;23.088;2022-07-24T07:39:49;97426.22;;;32.90;15.12
39729;BME280;25402;42.004;23.088;2022-07-24T07:42:16;97434.44;;;32.95;15.01
39729;BME280;25402;42.004;23.088;2022-07-24T07:44:42;97417.81;;;32.90;14.95
39729;BME280;25402;42.004;23.088;2022-07-24T07:47:09;97430.22;;;32.89;15.49
39729;BME280;25402;42.004;23.088;2022-07-24T07:49:35;97424.63;;;32.80;15.38
39729;BME280;25402;42.004;23.088;2022-07-24T07:52:02;97407.03;;;32.63;15.13
39729;BME280;25402;42.004;23.088;2022-07-24T07:54:29;97412.16;;;32.69;15.24
39729;BME280;25402;42.004;23.088;2022-07-24T07:56:55;97414.94;;;32.61;15.30
39729;BME280;25402;42.004;23.088;2022-07-24T07:59:22;97415.78;;;32.70;15.31
39729;BME280;25402;42.004;23.088;2022-07-24T08:01:49;97392.41;;;32.57;15.44
39729;BME280;25402;42.004;23.088;2022-07-24T08:04:16;97405.91;;;32.55;15.71
39729;BME280;25402;42.004;23.088;2022-07-24T08:06:42;97410.84;;;32.58;15.50
39729;BME280;25402;42.004;23.088;2022-07-24T08:09:08;97407.03;;;32.71;15.21
39729;BME280;25402;42.004;23.088;2022-07-24T08:11:36;97403.19;;;32.84;15.21
39729;BME280;25402;42.004;23.088;2022-07-24T08:14:02;97391.34;;;32.79;15.47
39729;BME280;25402;42.004;23.088;2022-07-24T08:16:28;97396.22;;;32.91;15.17
39729;BME280;25402;42.004;23.088;2022-07-24T08:18:55;97387.66;;;32.96;14.61
39729;BME280;25402;42.004;23.088;2022-07-24T08:21:22;97398.03;;;32.95;15.11
39729;BME280;25402;42.004;23.088;2022-07-24T08:23:48;97385.22;;;32.86;14.99
39729;BME280;25402;42.004;23.088;2022-07-24T08:26:15;97396.09;;;32.87;14.98
39729;BME280;25402;42.004;23.088;2022-07-24T08:28:42;97385.84;;;32.91;14.99
39729;BME280;25402;42.004;23.088;2022-07-24T08:31:08;97375.28;;;32.97;14.63
39729;BME280;25402;42.004;23.088;2022-07-24T08:33:35;97387.44;;;33.09;14.99
39729;BME280;25402;42.004;23.088;2022-07-24T08:36:01;97380.00;;;33.13;14.86
39729;BME280;25402;42.004;23.088;2022-07-24T08:38:28;97362.75;;;32.94;14.57
39729;BME280;25402;42.004;23.088;2022-07-24T08:40:54;97380.59;;;32.90;14.78
39729;BME280;25402;42.004;23.088;2022-07-24T08:43:21;97377.25;;;32.96;14.83
39729;BME280;25402;42.004;23.088;2022-07-24T08:45:49;97368.50;;;33.06;14.49
39729;BME280;25402;42.004;23.088;2022-07-24T08:48:21;97373.91;;;33.11;14.77
39729;BME280;25402;42.004;23.088;2022-07-24T08:50:49;97367.97;;;33.13;14.96
39729;BME280;25402;42.004;23.088;2022-07-24T08:53:19;97351.56;;;33.24;14.85
39729;BME280;25402;42.004;23.088;2022-07-24T08:55:47;97365.13;;;33.51;15.11
39729;BME280;25402;42.004;23.088;2022-07-24T08:58:14;97361.47;;;33.71;14.60
39729;BME280;25402;42.004;23.088;2022-07-24T09:00:40;97362.50;;;33.87;14.39
39729;BME280;25402;42.004;23.088;2022-07-24T09:03:08;97362.00;;;34.06;14.15
39729;BME280;25402;42.004;23.088;2022-07-24T09:05:52;97343.69;;;34.21;13.73
39729;BME280;25402;42.004;23.088;2022-07-24T09:08:19;97344.22;;;34.35;14.23
39729;BME280;25402;42.004;23.088;2022-07-24T09:10:53;97346.97;;;34.56;14.00
39729;BME280;25402;42.004;23.088;2022-07-24T09:13:20;97345.00;;;34.69;14.04
39729;BME280;25402;42.004;23.088;2022-07-24T09:15:50;97339.19;;;34.74;13.67
39729;BME280;25402;42.004;23.088;2022-07-24T09:18:29;97345.75;;;34.90;14.01
39729;BME280;25402;42.004;23.088;2022-07-24T09:20:56;97345.75;;;35.14;13.63
39729;BME280;25402;42.004;23.088;2022-07-24T09:23:23;97350.19;;;35.28;13.59
39729;BME280;25402;42.004;23.088;2022-07-24T09:25:51;97344.44;;;35.36;13.39
39729;BME280;25402;42.004;23.088;2022-07-24T09:28:18;97351.09;;;35.44;13.43
39729;BME280;25402;42.004;23.088;2022-07-24T09:30:45;97345.72;;;35.51;13.65
39729;BME280;25402;42.004;23.088;2022-07-24T09:33:15;97322.13;;;35.68;13.30
39729;BME280;25402;42.004;23.088;2022-07-24T09:35:44;97322.13;;;35.96;13.10
39729;BME280;25402;42.004;23.088;2022-07-24T09:38:12;97302.91;;;35.98;13.12
39729;BME280;25402;42.004;23.088;2022-07-24T09:40:41;97314.66;;;36.15;13.09
39729;BME280;25402;42.004;23.088;2022-07-24T09:43:19;97291.00;;;36.32;12.72
39729;BME280;25402;42.004;23.088;2022-07-24T09:45:58;97304.63;;;36.46;12.69
39729;BME280;25402;42.004;23.088;2022-07-24T09:48:26;97296.31;;;36.65;12.78
39729;BME280;25402;42.004;23.088;2022-07-24T09:50:55;97277.03;;;36.51;12.61
39729;BME280;25402;42.004;23.088;2022-07-24T09:53:24;97291.38;;;36.78;12.63
39729;BME280;25402;42.004;23.088;2022-07-24T09:56:03;97296.78;;;37.02;12.69
39729;BME280;25402;42.004;23.088;2022-07-24T09:58:31;97284.69;;;37.17;12.57
39729;BME280;25402;42.004;23.088;2022-07-24T10:00:59;97278.63;;;37.35;12.50
39729;BME280;25402;42.004;23.088;2022-07-24T10:03:28;97268.03;;;37.47;12.43
39729;BME280;25402;42.004;23.088;2022-07-24T10:05:58;97274.59;;;37.71;12.31
39729;BME280;25402;42.004;23.088;2022-07-24T10:08:25;97273.09;;;37.96;12.01
39729;BME280;25402;42.004;23.088;2022-07-24T10:10:53;97260.38;;;38.06;11.65
39729;BME280;25402;42.004;23.088;2022-07-24T10:13:20;97252.03;;;38.13;11.62
39729;BME280;25402;42.004;23.088;2022-07-24T10:15:56;97250.56;;;38.42;11.45
39729;BME280;25402;42.004;23.088;2022-07-24T10:18:34;97251.69;;;38.60;11.42
39729;BME280;25402;42.004;23.088;2022-07-24T10:21:07;97233.06;;;38.55;11.16
39729;BME280;25402;42.004;23.088;2022-07-24T10:23:49;97253.81;;;38.44;10.62
39729;BME280;25402;42.004;23.088;2022-07-24T10:26:30;97248.50;;;38.39;11.12
39729;BME280;25402;42.004;23.088;2022-07-24T10:29:05;97247.09;;;38.29;10.51
39729;BME280;25402;42.004;23.088;2022-07-24T10:31:34;97232.63;;;38.30;10.54
39729;BME280;25402;42.004;23.088;2022-07-24T10:34:05;97239.56;;;38.59;10.64
39729;BME280;25402;42.004;23.088;2022-07-24T10:36:40;97218.41;;;38.73;10.45
39729;BME280;25402;42.004;23.088;2022-07-24T10:39:12;97240.63;;;38.74;11.07
39729;BME280;25402;42.004;23.088;2022-07-24T10:41:39;97230.53;;;38.50;11.29
39729;BME280;25402;42.004;23.088;2022-07-24T10:44:14;97234.66;;;38.53;10.39
39729;BME280;25402;42.004;23.088;2022-07-24T10:47:12;97225.19;;;38.68;9.89
39729;BME280;25402;42.004;23.088;2022-07-24T10:49:44;97217.84;;;38.63;9.80
39729;BME280;25402;42.004;23.088;2022-07-24T10:52:21;97220.44;;;38.76;9.53
39729;BME280;25402;42.004;23.088;2022-07-24T10:58:02;97200.50;;;38.65;9.82
39729;BME280;25402;42.004;23.088;2022-07-24T11:00:32;97214.66;;;38.65;9.61
39729;BME280;25402;42.004;23.088;2022-07-24T11:03:02;97208.25;;;38.68;9.67
39729;BME280;25402;42.004;23.088;2022-07-24T11:05:31;97190.91;;;38.47;9.65
39729;BME280;25402;42.004;23.088;2022-07-24T11:08:29;97193.53;;;38.55;9.82
39729;BME280;25402;42.004;23.088;2022-07-24T11:10:59;97197.31;;;38.67;10.23
39729;BME280;25402;42.004;23.088;2022-07-24T11:13:44;97189.50;;;38.56;10.52
39729;BME280;25402;42.004;23.088;2022-07-24T11:16:21;97170.91;;;38.55;10.35
39729;BME280;25402;42.004;23.088;2022-07-24T11:19:26;97189.59;;;38.63;10.76
39729;BME280;25402;42.004;23.088;2022-07-24T11:22:11;97182.81;;;38.68;10.64
39729;BME280;25402;42.004;23.088;2022-07-24T11:24:42;97180.06;;;38.75;11.04
39729;BME280;25402;42.004;23.088;2022-07-24T11:27:44;97173.22;;;38.76;10.63
39729;BME280;25402;42.004;23.088;2022-07-24T11:30:11;97173.50;;;38.68;10.36
39729;BME280;25402;42.004;23.088;2022-07-24T11:32:39;97165.34;;;38.89;10.65
39729;BME280;25402;42.004;23.088;2022-07-24T11:35:06;97174.97;;;38.84;10.68
39729;BME280;25402;42.004;23.088;2022-07-24T11:37:34;97171.38;;;38.61;10.83
39729;BME280;25402;42.004;23.088;2022-07-24T11:40:02;97167.28;;;38.32;10.98
39729;BME280;25402;42.004;23.088;2022-07-24T11:42:32;97168.50;;;38.57;10.90
39729;BME280;25402;42.004;23.088;2022-07-24T11:44:59;97154.69;;;38.79;10.48
39729;BME280;25402;42.004;23.088;2022-07-24T11:47:35;97155.78;;;38.71;10.54
39729;BME280;25402;42.004;23.088;2022-07-24T11:50:03;97149.53;;;38.58;10.46
39729;BME280;25402;42.004;23.088;2022-07-24T11:52:32;97170.13;;;38.85;11.02
39729;BME280;25402;42.004;23.088;2022-07-24T11:54:59;97139.91;;;38.89;10.54
39729;BME280;25402;42.004;23.088;2022-07-24T11:57:28;97130.44;;;39.04;10.20
39729;BME280;25402;42.004;23.088;2022-07-24T11:59:55;97140.78;;;38.93;10.75
39729;BME280;25402;42.004;23.088;2022-07-24T12:02:22;97130.81;;;38.50;10.93
39729;BME280;25402;42.004;23.088;2022-07-24T12:04:50;97134.22;;;38.59;10.62
39729;BME280;25402;42.004;23.088;2022-07-24T12:07:18;97140.72;;;38.37;10.90
39729;BME280;25402;42.004;23.088;2022-07-24T12:09:50;97126.06;;;38.54;10.74
39729;BME280;25402;42.004;23.088;2022-07-24T12:12:22;97133.13;;;37.95;11.21
39729;BME280;25402;42.004;23.088;2022-07-24T12:14:52;97117.94;;;38.26;10.69
39729;BME280;25402;42.004;23.088;2022-07-24T12:17:20;97110.84;;;38.36;10.96
39729;BME280;25402;42.004;23.088;2022-07-24T12:19:54;97130.59;;;38.36;11.30
39729;BME280;25402;42.004;23.088;2022-07-24T12:22:22;97114.81;;;38.57;10.89
39729;BME280;25402;42.004;23.088;2022-07-24T12:24:49;97118.03;;;38.86;10.75
39729;BME280;25402;42.004;23.088;2022-07-24T12:27:37;97114.84;;;38.35;10.95
39729;BME280;25402;42.004;23.088;2022-07-24T12:30:17;97101.91;;;38.07;10.85
39729;BME280;25402;42.004;23.088;2022-07-24T12:33:07;97100.94;;;37.77;11.46
39729;BME280;25402;42.004;23.088;2022-07-24T12:35:51;97099.63;;;38.16;11.27
39729;BME280;25402;42.004;23.088;2022-07-24T12:38:23;97092.03;;;37.97;11.33
39729;BME280;25402;42.004;23.088;2022-07-24T12:40:50;97104.25;;;38.28;10.88
39729;BME280;25402;42.004;23.088;2022-07-24T12:43:16;97108.44;;;38.38;11.10
39729;BME280;25402;42.004;23.088;2022-07-24T12:45:43;97080.25;;;38.41;10.72
39729;BME280;25402;42.004;23.088;2022-07-24T12:48:20;97094.25;;;38.34;10.87
39729;BME280;25402;42.004;23.088;2022-07-24T12:51:01;97093.44;;;38.60;11.03
39729;BME280;25402;42.004;23.088;2022-07-24T12:53:29;97096.63;;;38.55;10.85
39729;BME280;25402;42.004;23.088;2022-07-24T12:56:10;97080.41;;;38.52;10.90
39729;BME280;25402;42.004;23.088;2022-07-24T12:58:51;97091.66;;;38.48;10.79
39729;BME280;25402;42.004;23.088;2022-07-24T13:01:19;97080.41;;;38.52;10.89